Time;durP1;ratioP1;P1;durP2;ratioP2;P2;SDS_P1;SDS_P2;PMS_P1;PMS_P2;Temp;Humidity;BMP_temperature;BMP_pressure;BME280_temperature;BME280_humidity;BME280_pressure;Samples;Min_cycle;Max_cycle;Signal;HPM_P1;HPM_P2
2023/04/26 03:02:18;;;;;;;25.17;22.57;;;4.20;99.90;;;;;;5132513;23;20246;-78
2023/04/26 03:04:46;;;;;;;31.13;28.27;;;4.20;99.90;;;;;;5004820;28;20271;-79
2023/04/26 03:07:12;;;;;;;45.37;41.43;;;4.20;99.90;;;;;;5005312;28;20180;-79
2023/04/26 03:09:38;;;;;;;42.30;38.93;;;4.30;99.90;;;;;;5001938;28;20188;-80
2023/04/26 03:12:05;;;;;;;41.20;37.63;;;4.30;99.90;;;;;;4996540;28;20235;-78
2023/04/26 03:14:32;;;;;;;45.87;42.13;;;4.40;99.90;;;;;;4993245;28;20706;-80
2023/04/26 03:16:58;;;;;;;28.90;26.07;;;4.40;99.90;;;;;;4993023;28;20184;-78
2023/04/26 03:19:24;;;;;;;24.17;21.77;;;4.50;99.90;;;;;;4993992;28;20612;-80
2023/04/26 03:21:50;;;;;;;22.23;19.07;;;4.40;99.90;;;;;;4995318;28;20200;-80
2023/04/26 03:24:16;;;;;;;32.57;29.17;;;4.40;99.90;;;;;;4977014;28;20316;-80
2023/04/26 03:26:42;;;;;;;31.63;28.67;;;4.40;99.90;;;;;;4973859;28;20548;-80
2023/04/26 03:29:08;;;;;;;28.20;23.77;;;4.40;99.90;;;;;;4986179;28;20262;-80
2023/04/26 03:31:34;;;;;;;30.67;23.30;;;4.30;99.90;;;;;;4993366;28;20205;-80
2023/04/26 03:33:59;;;;;;;42.17;25.10;;;4.30;99.90;;;;;;4995420;28;20203;-81
2023/04/26 03:36:27;;;;;;;36.60;27.83;;;4.30;99.90;;;;;;4994878;28;20231;-80
2023/04/26 03:38:53;;;;;;;39.93;27.00;;;4.30;99.90;;;;;;4998411;28;20188;-78
2023/04/26 03:41:19;;;;;;;46.67;26.93;;;4.40;99.90;;;;;;4981902;28;20205;-80
2023/04/26 03:43:45;;;;;;;31.20;24.77;;;4.40;99.90;;;;;;4982172;28;20188;-79
2023/04/26 03:46:11;;;;;;;36.87;23.67;;;4.40;99.90;;;;;;4979069;28;20189;-78
2023/04/26 03:48:37;;;;;;;27.97;22.33;;;4.50;99.90;;;;;;4980538;28;20193;-80
2023/04/26 03:51:03;;;;;;;28.50;21.20;;;4.50;99.90;;;;;;4974087;28;20228;-79
2023/04/26 03:53:29;;;;;;;25.73;23.03;;;4.60;99.90;;;;;;4974070;28;20278;-80
2023/04/26 03:55:55;;;;;;;29.93;26.97;;;4.60;99.90;;;;;;4975048;28;20263;-79
2023/04/26 03:58:21;;;;;;;34.63;31.23;;;4.60;99.90;;;;;;4973503;28;20189;-80
2023/04/26 04:00:47;;;;;;;28.93;25.63;;;4.70;99.90;;;;;;4988265;28;20272;-79
2023/04/26 04:03:12;;;;;;;28.03;25.00;;;4.70;99.90;;;;;;4977003;28;20203;-80
2023/04/26 04:05:38;;;;;;;40.20;36.43;;;4.70;99.90;;;;;;4978488;28;20219;-80
2023/04/26 04:08:04;;;;;;;57.50;52.97;;;4.70;99.90;;;;;;4980433;28;20230;-80
2023/04/26 04:10:30;;;;;;;76.53;71.40;;;4.70;99.90;;;;;;4993018;28;20187;-80
2023/04/26 04:12:55;;;;;;;100.17;93.30;;;4.70;99.90;;;;;;5000025;28;20208;-79
2023/04/26 04:15:21;;;;;;;74.83;69.43;;;4.60;99.90;;;;;;4998697;28;20640;-79
2023/04/26 04:17:47;;;;;;;69.93;65.03;;;4.70;99.90;;;;;;4998208;28;20188;-80
2023/04/26 04:20:13;;;;;;;52.53;48.47;;;4.70;99.90;;;;;;4985552;28;20251;-79
2023/04/26 04:22:39;;;;;;;66.23;61.57;;;4.60;99.90;;;;;;4978696;28;20185;-81
2023/04/26 04:25:11;;;;;;;51.37;47.10;;;4.60;99.90;;;;;;4979820;28;20185;-79
2023/04/26 04:27:37;;;;;;;81.03;75.33;;;4.60;99.90;;;;;;4978498;28;20249;-79
2023/04/26 04:30:06;;;;;;;80.17;62.50;;;4.60;99.90;;;;;;4996931;28;20818;-77
2023/04/26 04:32:32;;;;;;;111.80;67.60;;;4.70;99.90;;;;;;5006736;28;20232;-78
2023/04/26 04:34:58;;;;;;;102.10;93.90;;;4.70;99.90;;;;;;4990791;28;20208;-76
2023/04/26 04:37:24;;;;;;;32.37;29.17;;;4.70;99.90;;;;;;4990835;28;20235;-75
2023/04/26 04:39:54;;;;;;;66.53;30.33;;;4.70;99.90;;;;;;4988945;28;20180;-76
2023/04/26 04:42:20;;;;;;;81.30;73.87;;;4.70;99.90;;;;;;4995989;28;20239;-74
2023/04/26 04:44:46;;;;;;;92.17;84.37;;;4.60;99.90;;;;;;5013384;28;20238;-75
2023/04/26 04:47:12;;;;;;;85.53;76.27;;;4.50;99.90;;;;;;5012674;28;20222;-75
2023/04/26 04:49:38;;;;;;;79.23;70.67;;;4.50;99.90;;;;;;5004500;28;20228;-76
2023/04/26 04:52:05;;;;;;;67.00;50.13;;;4.50;99.90;;;;;;4994246;28;20213;-76
2023/04/26 04:54:31;;;;;;;101.27;56.50;;;4.40;99.90;;;;;;4994497;28;20204;-77
2023/04/26 04:56:57;;;;;;;61.33;23.17;;;4.50;99.90;;;;;;4994256;28;20550;-76
2023/04/26 04:59:23;;;;;;;68.97;29.90;;;4.50;99.90;;;;;;4988799;28;20195;-76
2023/04/26 05:01:49;;;;;;;129.23;47.13;;;4.50;99.90;;;;;;4991859;28;20220;-76
2023/04/26 05:04:15;;;;;;;61.60;32.77;;;4.60;99.90;;;;;;4993263;28;20239;-78
2023/04/26 05:06:41;;;;;;;80.33;31.80;;;4.60;99.90;;;;;;4994194;28;20192;-77
2023/04/26 05:09:08;;;;;;;65.30;48.77;;;4.70;99.90;;;;;;4993664;28;20184;-77
2023/04/26 05:11:34;;;;;;;52.27;38.97;;;4.70;99.90;;;;;;4978811;28;20211;-78
2023/04/26 05:14:00;;;;;;;142.90;51.03;;;4.90;99.90;;;;;;4993119;28;20220;-77
2023/04/26 05:16:26;;;;;;;72.33;40.90;;;5.10;99.90;;;;;;4993227;28;20181;-75
2023/04/26 05:18:52;;;;;;;80.57;40.33;;;5.20;99.90;;;;;;4994083;28;20184;-76
2023/04/26 05:21:18;;;;;;;109.40;68.10;;;5.30;99.90;;;;;;4992269;28;20589;-76
2023/04/26 05:23:44;;;;;;;83.73;61.80;;;5.30;99.90;;;;;;4992616;28;20215;-76
2023/04/26 05:26:15;;;;;;;81.00;52.93;;;5.30;99.90;;;;;;4993725;28;20180;-76
2023/04/26 05:28:42;;;;;;;75.20;48.27;;;5.40;99.90;;;;;;4992803;28;20185;-76
2023/04/26 05:31:08;;;;;;;63.70;52.33;;;5.40;99.90;;;;;;4977432;28;20205;-77
2023/04/26 05:33:34;;;;;;;56.27;18.33;;;5.50;99.90;;;;;;4976072;28;20251;-73
2023/04/26 05:36:00;;;;;;;79.90;19.53;;;5.40;99.90;;;;;;4979571;28;20185;-74
2023/04/26 05:38:26;;;;;;;46.60;19.90;;;5.40;99.90;;;;;;4980619;28;20191;-73
2023/04/26 05:40:52;;;;;;;85.53;20.33;;;5.40;99.90;;;;;;4997855;28;20590;-72
2023/04/26 05:43:18;;;;;;;41.33;25.90;;;5.40;99.90;;;;;;4998311;28;20188;-74
2023/04/26 05:45:54;;;;;;;49.47;45.10;;;5.40;99.90;;;;;;5003492;28;20192;-76
2023/04/26 05:48:21;;;;;;;71.63;45.57;;;5.50;99.90;;;;;;4993782;28;20190;-77
2023/04/26 05:50:47;;;;;;;50.97;46.07;;;5.60;99.90;;;;;;4991842;28;20208;-75
2023/04/26 05:53:13;;;;;;;59.83;36.77;;;5.70;99.90;;;;;;4989020;28;20217;-75
2023/04/26 05:55:41;;;;;;;37.20;21.17;;;5.80;99.90;;;;;;4975591;28;20185;-77
2023/04/26 05:58:07;;;;;;;44.07;20.70;;;6.00;99.90;;;;;;4976748;28;20184;-75
2023/04/26 06:00:33;;;;;;;26.60;20.43;;;6.00;99.90;;;;;;4993847;28;21031;-75
2023/04/26 06:02:59;;;;;;;39.43;20.37;;;6.10;99.90;;;;;;5003822;28;20202;-75
2023/04/26 06:05:24;;;;;;;35.93;16.27;;;6.20;99.90;;;;;;5004290;28;20220;-77
2023/04/26 06:07:51;;;;;;;46.03;16.97;;;6.30;99.90;;;;;;5000366;28;20188;-76
2023/04/26 06:10:16;;;;;;;32.63;21.00;;;6.50;99.90;;;;;;4985199;28;20608;-76
2023/04/26 06:12:43;;;;;;;54.83;26.30;;;6.50;99.90;;;;;;4974333;28;20189;-75
2023/04/26 06:15:09;;;;;;;34.83;20.90;;;6.70;99.90;;;;;;4976845;28;20200;-77
2023/04/26 06:17:35;;;;;;;35.33;19.07;;;6.80;99.90;;;;;;4978544;28;20177;-77
2023/04/26 06:20:01;;;;;;;24.57;20.27;;;6.80;99.90;;;;;;4980600;28;20173;-76
2023/04/26 06:22:27;;;;;;;30.07;19.87;;;6.80;99.90;;;;;;4993258;28;20663;-75
2023/04/26 06:24:53;;;;;;;33.40;16.03;;;6.80;99.90;;;;;;4993532;28;20264;-76
2023/04/26 06:27:19;;;;;;;39.63;23.63;;;6.90;99.90;;;;;;4992426;28;20195;-75
2023/04/26 06:29:45;;;;;;;45.83;29.50;;;6.90;99.90;;;;;;4988006;28;20712;-76
2023/04/26 06:32:10;;;;;;;30.00;27.00;;;6.90;99.90;;;;;;4976425;28;20723;-75
2023/04/26 06:34:37;;;;;;;31.40;28.40;;;7.10;99.90;;;;;;4973637;28;20684;-76
2023/04/26 06:37:04;;;;;;;40.43;25.40;;;7.40;99.90;;;;;;4973573;28;20185;-76
2023/04/26 06:39:30;;;;;;;36.23;16.13;;;7.60;99.90;;;;;;4975814;28;20580;-77
2023/04/26 06:41:55;;;;;;;28.20;25.40;;;7.70;99.90;;;;;;4992502;28;20208;-76
2023/04/26 06:44:21;;;;;;;18.30;16.40;;;7.80;99.90;;;;;;4992281;28;20267;-76
2023/04/26 06:46:48;;;;;;;27.63;24.87;;;7.60;99.90;;;;;;4991940;28;20239;-76
2023/04/26 06:49:14;;;;;;;26.17;23.57;;;7.60;99.90;;;;;;4992719;28;20176;-76
2023/04/26 06:51:40;;;;;;;26.30;23.57;;;7.70;99.90;;;;;;4972584;28;20268;-78
2023/04/26 06:54:05;;;;;;;27.23;24.33;;;7.70;99.90;;;;;;4973532;28;20251;-76
2023/04/26 06:56:31;;;;;;;29.33;26.57;;;7.90;99.90;;;;;;4972118;28;20639;-75
2023/04/26 06:59:04;;;;;;;22.20;20.00;;;8.30;99.90;;;;;;4973202;28;20181;-75
2023/04/26 07:01:34;;;;;;;19.20;16.90;;;8.40;99.90;;;;;;4990121;28;20212;-76
2023/04/26 07:04:08;;;;;;;18.73;15.40;;;8.70;99.90;;;;;;4991857;28;20180;-76
2023/04/26 07:06:34;;;;;;;21.00;17.70;;;8.90;99.90;;;;;;4991542;28;20190;-76
2023/04/26 07:09:01;;;;;;;22.93;20.63;;;9.20;99.90;;;;;;4992781;28;20188;-76
2023/04/26 07:11:28;;;;;;;25.10;21.27;;;9.70;99.90;;;;;;4976170;28;20212;-76
2023/04/26 07:13:54;;;;;;;23.43;21.30;;;10.00;99.90;;;;;;4973799;28;20303;-77
2023/04/26 07:16:20;;;;;;;16.43;14.23;;;10.40;99.90;;;;;;4972253;28;20181;-76
2023/04/26 07:18:47;;;;;;;18.37;16.47;;;10.60;99.90;;;;;;4972377;28;20188;-76
2023/04/26 07:21:13;;;;;;;24.03;21.63;;;10.80;99.90;;;;;;4986126;28;20287;-75
2023/04/26 07:23:39;;;;;;;22.27;19.87;;;11.10;99.90;;;;;;4992468;28;20180;-75
2023/04/26 07:26:06;;;;;;;17.27;13.43;;;11.10;99.90;;;;;;4991225;28;20180;-75
2023/04/26 07:28:31;;;;;;;19.67;15.17;;;11.20;99.90;;;;;;4991981;28;20192;-75
2023/04/26 07:31:00;;;;;;;17.23;15.43;;;11.20;99.90;;;;;;4978862;28;20216;-75
2023/04/26 07:33:26;;;;;;;25.07;22.50;;;11.60;99.90;;;;;;4971515;28;20255;-75
2023/04/26 07:35:58;;;;;;;20.00;18.27;;;11.90;99.90;;;;;;4971937;28;20188;-75
2023/04/26 07:38:24;;;;;;;16.73;15.13;;;12.30;99.90;;;;;;4971185;28;20204;-76
2023/04/26 07:40:50;;;;;;;16.07;13.30;;;12.80;99.90;;;;;;4982584;28;20196;-77
2023/04/26 07:43:16;;;;;;;34.00;31.67;;;13.00;99.90;;;;;;4992360;28;20610;-76
2023/04/26 07:45:42;;;;;;;14.13;12.73;;;13.90;99.90;;;;;;4991142;28;20551;-76
2023/04/26 07:48:08;;;;;;;16.73;14.00;;;14.60;99.90;;;;;;4989942;28;20279;-76
2023/04/26 07:50:35;;;;;;;11.73;10.63;;;14.30;99.90;;;;;;4990291;28;20246;-76
2023/04/26 07:53:00;;;;;;;10.97;9.97;;;14.20;99.90;;;;;;4991086;28;20219;-75
2023/04/26 07:55:26;;;;;;;10.67;7.77;;;14.20;99.90;;;;;;4991086;28;20176;-76
2023/04/26 07:57:52;;;;;;;12.40;9.37;;;14.30;99.90;;;;;;4990887;28;20270;-76
2023/04/26 08:00:18;;;;;;;9.17;7.60;;;14.30;99.90;;;;;;4985679;28;20177;-76
2023/04/26 08:02:47;;;;;;;12.13;10.90;;;14.40;99.90;;;;;;4971999;28;20188;-76
2023/04/26 08:05:14;;;;;;;9.97;9.07;;;14.40;99.90;;;;;;4972787;28;20607;-76
2023/04/26 08:07:40;;;;;;;13.87;12.77;;;14.10;99.90;;;;;;4972517;28;20278;-76
2023/04/26 08:10:07;;;;;;;15.90;14.47;;;13.90;99.90;;;;;;4975634;28;20207;-76
2023/04/26 08:12:35;;;;;;;12.73;11.63;;;14.50;99.90;;;;;;4991180;28;20267;-76
2023/04/26 08:15:03;;;;;;;12.37;11.13;;;15.00;99.90;;;;;;4991686;28;20300;-76
2023/04/26 08:17:30;;;;;;;12.60;11.53;;;15.00;99.90;;;;;;4990245;28;20191;-76
2023/04/26 08:19:59;;;;;;;13.20;11.97;;;14.30;99.90;;;;;;4988676;28;20313;-76
2023/04/26 08:22:26;;;;;;;10.57;9.83;;;14.80;99.90;;;;;;4971066;28;20197;-76
2023/04/26 08:24:54;;;;;;;10.33;9.33;;;15.40;99.90;;;;;;4972436;28;20223;-76
2023/04/26 08:27:21;;;;;;;12.07;11.03;;;16.10;99.90;;;;;;4973538;28;20688;-75
2023/04/26 08:29:47;;;;;;;12.17;11.17;;;16.00;99.50;;;;;;4990102;28;20188;-75
2023/04/26 08:32:13;;;;;;;10.93;10.00;;;15.40;99.90;;;;;;4990559;28;20278;-75
2023/04/26 08:34:39;;;;;;;11.67;9.53;;;15.30;97.90;;;;;;4990403;28;20215;-74
2023/04/26 08:37:09;;;;;;;8.67;8.07;;;15.00;96.10;;;;;;4991572;28;20528;-74
2023/04/26 08:39:35;;;;;;;6.47;5.17;;;15.10;94.80;;;;;;4991934;28;20255;-75
2023/04/26 08:42:24;;;;;;;6.77;6.10;;;14.80;92.50;;;;;;4971140;28;20300;-76
2023/04/26 08:44:51;;;;;;;13.83;11.90;;;14.30;93.60;;;;;;4972159;28;20244;-75
2023/04/26 08:47:30;;;;;;;7.27;6.43;;;14.30;94.40;;;;;;4970994;28;20649;-75
2023/04/26 08:50:02;;;;;;;9.03;7.40;;;14.50;90.30;;;;;;4974919;28;20567;-75
2023/04/26 08:52:30;;;;;;;10.40;9.67;;;14.60;91.30;;;;;;4995035;28;20204;-75
2023/04/26 08:54:57;;;;;;;8.73;7.93;;;15.30;92.30;;;;;;4995246;28;20664;-76
2023/04/26 08:57:24;;;;;;;5.83;5.33;;;16.10;92.00;;;;;;5000584;28;20208;-76
2023/04/26 08:59:52;;;;;;;6.67;5.97;;;16.00;89.60;;;;;;5001704;28;20177;-75
2023/04/26 09:02:22;;;;;;;9.53;5.87;;;16.20;91.40;;;;;;4979541;28;20240;-75
2023/04/26 09:04:49;;;;;;;7.40;6.20;;;17.20;90.70;;;;;;4981492;28;20185;-76
2023/04/26 09:07:31;;;;;;;5.70;5.10;;;17.40;86.40;;;;;;4975206;28;20212;-76
2023/04/26 09:09:58;;;;;;;5.87;5.23;;;18.10;84.40;;;;;;4976897;28;20335;-76
2023/04/26 09:12:24;;;;;;;8.63;6.83;;;18.90;87.00;;;;;;4993292;28;20204;-76
2023/04/26 09:14:50;;;;;;;13.50;7.70;;;18.90;82.30;;;;;;4976772;28;20292;-76
2023/04/26 09:17:26;;;;;;;10.60;9.70;;;18.10;80.70;;;;;;4975008;28;20216;-76
2023/04/26 09:19:52;;;;;;;12.07;10.90;;;18.00;82.30;;;;;;4992382;28;20176;-76
2023/04/26 09:22:28;;;;;;;7.93;7.37;;;17.50;75.80;;;;;;4993931;28;20678;-76
2023/04/26 09:24:53;;;;;;;9.53;7.83;;;17.20;81.00;;;;;;4993592;28;20238;-76
2023/04/26 09:27:20;;;;;;;8.07;6.83;;;17.30;81.50;;;;;;4993329;28;20180;-76
2023/04/26 09:30:01;;;;;;;7.60;6.53;;;17.20;82.50;;;;;;4976904;28;20707;-76
2023/04/26 09:32:45;;;;;;;5.63;5.23;;;16.70;86.90;;;;;;4974954;28;20237;-75
2023/04/26 09:35:33;;;;;;;7.70;6.03;;;16.10;89.40;;;;;;4973693;28;20681;-75
2023/04/26 09:38:03;;;;;;;6.90;5.87;;;15.00;90.80;;;;;;4976960;28;20177;-76
2023/04/26 09:40:31;;;;;;;9.87;9.07;;;14.10;91.90;;;;;;4992916;28;20664;-76
2023/04/26 09:42:58;;;;;;;13.50;12.50;;;13.50;94.30;;;;;;4993151;28;20243;-76
2023/04/26 09:45:25;;;;;;;10.07;9.37;;;13.20;94.80;;;;;;4994216;28;20271;-77
2023/04/26 09:47:51;;;;;;;8.37;7.57;;;12.90;93.60;;;;;;4991952;28;20531;-76
2023/04/26 09:50:30;;;;;;;12.67;8.00;;;12.80;93.80;;;;;;4974683;28;20189;-76
2023/04/26 09:52:58;;;;;;;8.53;7.83;;;12.80;93.50;;;;;;4973941;28;20189;-77
2023/04/26 09:55:28;;;;;;;7.57;6.97;;;12.90;93.10;;;;;;4975875;28;20177;-75
2023/04/26 09:57:57;;;;;;;8.40;6.57;;;13.40;95.90;;;;;;4976044;28;20273;-76
2023/04/26 10:00:24;;;;;;;8.10;7.03;;;14.10;94.40;;;;;;4993715;28;20181;-76
2023/04/26 10:02:54;;;;;;;9.10;8.40;;;15.50;92.90;;;;;;4992866;28;20184;-76
2023/04/26 10:05:21;;;;;;;6.97;5.53;;;16.60;89.90;;;;;;4994498;28;20185;-76
2023/04/26 10:07:49;;;;;;;5.97;5.47;;;17.70;79.50;;;;;;4993352;28;20173;-76
2023/04/26 10:10:16;;;;;;;10.47;6.20;;;18.00;77.90;;;;;;4973384;28;20208;-76
2023/04/26 10:12:43;;;;;;;6.93;6.33;;;17.50;79.10;;;;;;4973519;28;20184;-76
2023/04/26 10:15:10;;;;;;;7.77;7.17;;;18.00;77.00;;;;;;4974353;28;20719;-76
2023/04/26 10:17:37;;;;;;;9.67;8.87;;;18.00;75.30;;;;;;4976995;28;20576;-76
2023/04/26 10:20:06;;;;;;;7.27;6.67;;;17.70;76.00;;;;;;4995790;28;20208;-75
2023/04/26 10:22:38;;;;;;;9.37;8.60;;;17.70;79.80;;;;;;4996531;28;20203;-77
2023/04/26 10:25:08;;;;;;;10.30;9.50;;;17.30;77.50;;;;;;4992383;28;20192;-76
2023/04/26 10:27:45;;;;;;;9.40;8.60;;;16.60;75.70;;;;;;4991954;28;20184;-75
2023/04/26 10:30:16;;;;;;;7.67;7.10;;;16.70;79.20;;;;;;4992768;28;20191;-76
2023/04/26 10:32:54;;;;;;;8.77;7.83;;;16.50;80.40;;;;;;4994411;28;20192;-76
2023/04/26 10:35:21;;;;;;;7.80;5.60;;;16.00;78.70;;;;;;4993457;28;20200;-77
2023/04/26 10:37:59;;;;;;;8.27;5.30;;;15.70;83.60;;;;;;4992975;28;20181;-75
2023/04/26 10:40:38;;;;;;;10.20;5.83;;;15.90;83.00;;;;;;4973723;28;20185;-76
2023/04/26 10:43:13;;;;;;;6.23;5.73;;;15.90;82.60;;;;;;4973586;28;20255;-75
2023/04/26 10:45:44;;;;;;;6.60;6.03;;;15.60;80.80;;;;;;4972411;28;20267;-76
2023/04/26 10:48:16;;;;;;;7.63;6.20;;;15.50;80.30;;;;;;4973111;28;20216;-76
2023/04/26 10:51:00;;;;;;;6.70;5.30;;;15.80;80.60;;;;;;4972099;28;20219;-75
2023/04/26 10:53:44;;;;;;;6.20;5.57;;;15.40;82.10;;;;;;4972414;28;20209;-76
2023/04/26 10:56:22;;;;;;;7.57;6.87;;;15.20;84.60;;;;;;4972918;28;20289;-78
2023/04/26 10:59:05;;;;;;;7.33;6.23;;;15.60;80.00;;;;;;4981470;28;20187;-76
2023/04/26 11:01:31;;;;;;;7.10;6.33;;;16.30;81.90;;;;;;4992602;28;20223;-76
2023/04/26 11:03:57;;;;;;;10.93;10.13;;;17.90;75.70;;;;;;4992488;28;20191;-76
2023/04/26 11:06:26;;;;;;;18.20;17.17;;;18.50;72.60;;;;;;4992644;28;20199;-76
2023/04/26 11:08:52;;;;;;;18.47;17.30;;;18.70;71.90;;;;;;4983381;28;20181;-76
2023/04/26 11:11:19;;;;;;;18.80;17.50;;;18.80;67.40;;;;;;4972860;28;20208;-76
2023/04/26 11:13:46;;;;;;;17.37;16.27;;;18.60;71.00;;;;;;4972981;28;20256;-76
2023/04/26 11:16:14;;;;;;;21.40;19.90;;;18.60;69.40;;;;;;4972952;28;20177;-76
2023/04/26 11:18:45;;;;;;;22.97;21.37;;;17.50;71.90;;;;;;4976851;28;20181;-76
2023/04/26 11:21:16;;;;;;;10.40;9.60;;;16.60;74.50;;;;;;4993580;28;20696;-76
2023/04/26 11:23:42;;;;;;;10.40;9.47;;;16.20;78.40;;;;;;4991141;28;20562;-76
2023/04/26 11:26:08;;;;;;;9.10;6.87;;;16.20;77.50;;;;;;4993176;28;20180;-76
2023/04/26 11:28:36;;;;;;;8.10;7.43;;;16.00;79.10;;;;;;4988159;28;20182;-76
2023/04/26 11:31:04;;;;;;;9.00;8.00;;;16.00;76.00;;;;;;4971753;28;20205;-76
2023/04/26 11:33:30;;;;;;;8.87;7.97;;;16.40;76.00;;;;;;4984716;28;20216;-75
2023/04/26 11:35:56;;;;;;;13.43;12.10;;;16.90;75.30;;;;;;4972819;28;20269;-75
2023/04/26 11:38:24;;;;;;;16.53;13.90;;;17.40;70.40;;;;;;4972478;28;20192;-75
2023/04/26 11:40:57;;;;;;;14.63;13.67;;;17.30;70.50;;;;;;4972885;28;20196;-75
2023/04/26 11:43:43;;;;;;;15.10;14.13;;;17.50;67.70;;;;;;4973658;28;20196;-75
2023/04/26 11:46:09;;;;;;;14.57;13.63;;;18.00;71.80;;;;;;4982671;28;20284;-75
2023/04/26 11:48:36;;;;;;;12.87;11.87;;;19.30;68.50;;;;;;4978560;28;20283;-76
2023/04/26 11:51:04;;;;;;;7.40;6.27;;;19.90;66.20;;;;;;4977398;28;20824;-75
2023/04/26 11:53:37;;;;;;;7.53;5.65;;;20.50;63.60;;;;;;4973232;28;20212;-76
2023/04/26 11:56:24;;;;;;;5.10;4.50;;;20.80;58.30;;;;;;4990808;28;20188;-76
2023/04/26 11:58:51;;;;;;;5.60;5.13;;;20.90;61.00;;;;;;4991024;28;20599;-75
2023/04/26 12:01:22;;;;;;;5.13;4.75;;;21.70;59.40;;;;;;4990381;28;20212;-76
2023/04/26 12:03:52;;;;;;;6.47;4.50;;;21.70;56.70;;;;;;4991591;28;20615;-75
2023/04/26 12:06:19;;;;;;;5.32;4.65;;;21.10;56.50;;;;;;4974954;28;20185;-76
2023/04/26 12:08:51;;;;;;;5.80;4.90;;;21.10;57.90;;;;;;4990370;28;20243;-76
2023/04/26 12:11:17;;;;;;;5.20;4.72;;;20.40;60.70;;;;;;4991770;28;20208;-76
2023/04/26 12:13:45;;;;;;;5.97;5.43;;;19.70;60.50;;;;;;4990850;28;20216;-76
2023/04/26 12:16:15;;;;;;;5.93;5.30;;;19.10;59.70;;;;;;4972037;28;20207;-76
2023/04/26 12:18:48;;;;;;;5.50;4.93;;;18.20;61.60;;;;;;4972577;28;20235;-76
2023/04/26 12:21:15;;;;;;;6.17;4.93;;;18.20;61.80;;;;;;4989285;28;20240;-75
2023/04/26 12:23:41;;;;;;;5.20;4.70;;;19.30;57.00;;;;;;4990003;28;20179;-76
2023/04/26 12:26:09;;;;;;;4.82;4.35;;;21.30;56.40;;;;;;4994420;28;20271;-76
2023/04/26 12:28:36;;;;;;;4.60;4.20;;;22.10;52.20;;;;;;4993781;28;20648;-76
2023/04/26 12:31:03;;;;;;;6.32;5.82;;;22.10;51.80;;;;;;4995671;28;20215;-76
2023/04/26 12:33:29;;;;;;;8.00;7.40;;;23.10;50.00;;;;;;4993801;28;20318;-75
2023/04/26 12:35:59;;;;;;;10.18;9.38;;;23.50;49.60;;;;;;4995683;28;20271;-76
2023/04/26 12:38:25;;;;;;;9.80;9.02;;;23.70;50.90;;;;;;4981833;28;20200;-75
2023/04/26 12:40:51;;;;;;;10.85;10.05;;;23.30;50.40;;;;;;4994210;28;20228;-74
2023/04/26 12:43:18;;;;;;;9.57;8.88;;;23.00;49.00;;;;;;4995578;28;20216;-74
2023/04/26 12:45:44;;;;;;;10.52;9.93;;;22.60;49.30;;;;;;4995422;28;20188;-75
2023/04/26 12:48:10;;;;;;;9.25;8.43;;;22.40;51.30;;;;;;4981091;28;20221;-75
2023/04/26 12:50:36;;;;;;;8.02;7.50;;;23.10;52.10;;;;;;4976362;28;20235;-74
2023/04/26 12:53:02;;;;;;;8.90;8.20;;;22.60;51.20;;;;;;4975952;28;20211;-75
2023/04/26 12:55:27;;;;;;;11.40;10.50;;;22.80;51.60;;;;;;4974318;28;20177;-75
2023/04/26 12:57:53;;;;;;;11.02;10.20;;;23.30;52.30;;;;;;4985946;28;20234;-76
2023/04/26 13:00:20;;;;;;;10.77;10.10;;;22.50;53.50;;;;;;4994257;28;20194;-75
2023/04/26 13:02:46;;;;;;;9.40;8.80;;;21.60;54.40;;;;;;4993941;28;20542;-76
2023/04/26 13:05:12;;;;;;;10.73;9.93;;;21.00;53.30;;;;;;4994856;28;20235;-76
2023/04/26 13:07:39;;;;;;;9.55;8.85;;;21.70;51.20;;;;;;4986177;28;20276;-75
2023/04/26 13:10:06;;;;;;;12.95;12.18;;;22.20;50.30;;;;;;4974087;28;20261;-75
2023/04/26 13:12:33;;;;;;;10.50;9.73;;;23.20;47.20;;;;;;4975284;28;20224;-75
2023/04/26 13:14:59;;;;;;;9.88;9.18;;;23.40;49.50;;;;;;4975308;28;20635;-75
2023/04/26 13:17:25;;;;;;;7.55;6.95;;;23.60;50.80;;;;;;4980729;28;20176;-75
2023/04/26 13:19:51;;;;;;;8.50;7.80;;;22.70;52.70;;;;;;4976786;28;20553;-75
2023/04/26 13:22:18;;;;;;;9.30;8.50;;;22.70;51.70;;;;;;4975206;28;20881;-75
2023/04/26 13:24:45;;;;;;;10.45;9.65;;;21.90;50.90;;;;;;4975137;28;20272;-74
2023/04/26 13:27:11;;;;;;;13.93;12.90;;;22.70;51.80;;;;;;4978844;28;20184;-75
2023/04/26 13:29:38;;;;;;;18.60;17.52;;;23.10;49.90;;;;;;4994332;28;20203;-75
2023/04/26 13:32:04;;;;;;;15.60;14.60;;;24.00;46.30;;;;;;4994280;28;20231;-76
2023/04/26 13:34:29;;;;;;;13.77;12.98;;;23.10;47.80;;;;;;4994239;28;20239;-75
2023/04/26 13:36:56;;;;;;;11.55;10.55;;;23.20;46.70;;;;;;4990650;28;20180;-75
2023/04/26 13:39:23;;;;;;;9.10;8.57;;;23.30;47.70;;;;;;4974665;28;20173;-75
2023/04/26 13:41:50;;;;;;;14.07;13.07;;;23.80;48.60;;;;;;4973521;28;20205;-75
2023/04/26 13:44:16;;;;;;;16.05;15.05;;;23.30;48.90;;;;;;4974687;28;20185;-75
2023/04/26 13:46:42;;;;;;;9.07;8.23;;;22.50;49.80;;;;;;4974599;28;20626;-75
2023/04/26 13:49:09;;;;;;;10.73;9.95;;;22.60;51.60;;;;;;4992347;28;20219;-74
2023/04/26 13:51:36;;;;;;;18.10;16.80;;;23.50;50.50;;;;;;4994197;28;20204;-75
2023/04/26 13:54:03;;;;;;;14.85;14.05;;;23.20;48.70;;;;;;4993902;28;20307;-74
2023/04/26 13:56:29;;;;;;;19.35;18.05;;;22.70;48.00;;;;;;4994087;28;20283;-74
2023/04/26 13:59:00;;;;;;;13.25;12.23;;;23.20;47.40;;;;;;4974657;28;20729;-74
2023/04/26 14:01:26;;;;;;;14.10;13.27;;;23.40;48.60;;;;;;4973398;28;20223;-74
2023/04/26 14:03:52;;;;;;;9.30;8.50;;;23.20;48.50;;;;;;4973412;28;20592;-74
2023/04/26 14:06:18;;;;;;;9.23;8.25;;;23.80;45.80;;;;;;4973001;28;20273;-74
2023/04/26 14:08:44;;;;;;;11.40;10.60;;;25.50;43.90;;;;;;4989223;28;20234;-75
2023/04/26 14:11:10;;;;;;;19.42;18.27;;;26.70;41.60;;;;;;4993423;28;20668;-75
2023/04/26 14:13:37;;;;;;;17.55;16.58;;;26.60;42.50;;;;;;4992115;28;20212;-75
2023/04/26 14:16:03;;;;;;;8.80;8.10;;;25.10;43.10;;;;;;4991879;28;20187;-75
2023/04/26 14:18:28;;;;;;;8.35;7.65;;;23.10;44.70;;;;;;4992294;28;20234;-74
2023/04/26 14:20:54;;;;;;;17.98;16.92;;;21.80;49.50;;;;;;4992743;28;20200;-75
2023/04/26 14:23:20;;;;;;;11.85;10.82;;;20.30;51.10;;;;;;4993512;28;20581;-74
2023/04/26 14:25:49;;;;;;;6.75;6.15;;;20.00;52.70;;;;;;4993838;28;20188;-74
2023/04/26 14:28:15;;;;;;;7.72;7.05;;;20.50;53.20;;;;;;4981424;28;20192;-73
2023/04/26 14:30:41;;;;;;;6.55;6.05;;;20.60;50.50;;;;;;4975705;28;20205;-73
2023/04/26 14:33:07;;;;;;;6.35;5.32;;;21.40;51.50;;;;;;4974379;28;20680;-72
2023/04/26 14:35:32;;;;;;;6.70;5.95;;;21.60;51.70;;;;;;4978342;28;20251;-73
2023/04/26 14:37:58;;;;;;;9.25;5.78;;;21.20;50.40;;;;;;4983849;28;20179;-73
2023/04/26 14:40:24;;;;;;;6.37;5.90;;;20.60;51.20;;;;;;4991516;28;20204;-73
2023/04/26 14:42:50;;;;;;;8.30;5.75;;;21.40;52.60;;;;;;4992698;28;20192;-74
2023/04/26 14:45:16;;;;;;;8.07;7.38;;;22.70;49.80;;;;;;4992882;28;20240;-76
2023/04/26 14:47:41;;;;;;;18.67;17.27;;;23.40;50.20;;;;;;4984365;28;20181;-76
2023/04/26 14:50:09;;;;;;;16.58;15.38;;;23.90;47.50;;;;;;4972059;28;20193;-76
2023/04/26 14:52:35;;;;;;;17.33;15.95;;;23.60;47.80;;;;;;4974378;28;20203;-76
2023/04/26 14:55:02;;;;;;;14.82;13.50;;;22.60;49.00;;;;;;4974240;28;20216;-77
2023/04/26 14:57:28;;;;;;;11.05;10.15;;;22.00;49.90;;;;;;4976469;28;20190;-76
2023/04/26 14:59:54;;;;;;;9.60;8.13;;;21.50;51.70;;;;;;4984561;28;20231;-76
2023/04/26 15:02:20;;;;;;;9.73;7.10;;;21.40;51.90;;;;;;4971943;28;20631;-76
2023/04/26 15:04:45;;;;;;;8.75;8.10;;;22.00;51.40;;;;;;4973066;28;20192;-76
2023/04/26 15:07:11;;;;;;;10.10;9.20;;;22.60;50.30;;;;;;4981164;28;20196;-76
2023/04/26 15:09:37;;;;;;;9.27;8.50;;;22.40;50.00;;;;;;4988445;28;20216;-75
2023/04/26 15:12:03;;;;;;;8.77;8.18;;;21.50;50.90;;;;;;4976757;28;20199;-73
2023/04/26 15:14:30;;;;;;;6.85;6.18;;;20.20;51.50;;;;;;4991898;28;20242;-73
2023/04/26 15:16:56;;;;;;;6.10;5.53;;;18.90;55.40;;;;;;4991600;28;20176;-71
2023/04/26 15:19:22;;;;;;;7.57;6.87;;;18.20;56.80;;;;;;4991588;28;20192;-71
2023/04/26 15:21:48;;;;;;;7.30;6.03;;;18.00;57.80;;;;;;4991804;28;20211;-76
2023/04/26 15:24:14;;;;;;;6.43;5.47;;;18.10;56.80;;;;;;4992107;28;20188;-75
2023/04/26 15:26:40;;;;;;;5.90;5.40;;;18.40;56.10;;;;;;4990880;28;20251;-75
2023/04/26 15:29:06;;;;;;;5.97;5.37;;;18.20;57.10;;;;;;4982998;28;20193;-75
2023/04/26 15:31:33;;;;;;;7.80;5.57;;;18.20;56.90;;;;;;4996683;28;20196;-75
2023/04/26 15:33:58;;;;;;;5.90;5.23;;;18.40;58.80;;;;;;4992226;28;20239;-76
2023/04/26 15:36:24;;;;;;;7.07;5.60;;;18.70;57.90;;;;;;5001041;28;20235;-76
2023/04/26 15:38:50;;;;;;;6.07;5.40;;;18.90;58.60;;;;;;4990259;28;20181;-75
2023/04/26 15:41:16;;;;;;;6.60;5.87;;;19.90;57.80;;;;;;4990889;28;20199;-78